createdAt,value
2023-04-18T00:02:55.666Z,6.76
2023-04-18T00:07:55.451Z,6.78
2023-04-18T00:12:55.407Z,6.75
2023-04-18T00:17:55.398Z,6.76
2023-04-18T00:22:55.307Z,6.78
2023-04-18T00:27:55.324Z,6.78
2023-04-18T00:32:55.295Z,6.78
2023-04-18T00:37:55.224Z,6.73
2023-04-18T00:42:55.212Z,6.75
2023-04-18T00:47:55.172Z,6.76
2023-04-18T00:52:55.152Z,6.73
2023-04-18T00:57:55.153Z,6.73
2023-04-18T01:02:55.399Z,6.71
2023-04-18T01:07:55.077Z,6.65
2023-04-18T01:12:55.025Z,6.68
2023-04-18T01:17:55.056Z,6.65
2023-04-18T01:22:54.997Z,6.64
2023-04-18T01:27:54.993Z,6.64
2023-04-18T01:32:54.945Z,6.63
2023-04-18T01:37:54.912Z,6.64
2023-04-18T01:42:54.901Z,6.60
2023-04-18T01:47:54.931Z,6.61
2023-04-18T01:52:54.870Z,6.61
2023-04-18T01:57:54.859Z,6.64
2023-04-18T02:02:54.949Z,6.57
2023-04-18T02:07:54.809Z,6.57
2023-04-18T02:12:54.809Z,6.57
2023-04-18T02:17:54.756Z,6.58
2023-04-18T02:22:54.734Z,6.60
2023-04-18T02:27:54.703Z,6.58
2023-04-18T02:32:54.706Z,6.55
2023-04-18T02:37:54.655Z,6.53
2023-04-18T02:42:54.640Z,6.51
2023-04-18T02:47:56.419Z,6.57
2023-04-18T02:52:54.550Z,6.55
2023-04-18T02:57:54.523Z,6.54
2023-04-18T03:02:54.639Z,6.48
2023-04-18T03:07:54.488Z,6.43
2023-04-18T03:12:54.446Z,6.43
2023-04-18T03:17:54.445Z,6.43
2023-04-18T03:22:54.387Z,6.45
2023-04-18T03:27:54.330Z,6.43
2023-04-18T03:32:54.324Z,6.45
2023-04-18T03:37:54.308Z,6.45
2023-04-18T03:42:54.210Z,6.38
2023-04-18T03:47:54.227Z,6.33
2023-04-18T03:52:54.118Z,6.32
2023-04-18T03:57:54.088Z,6.35
2023-04-18T04:02:54.330Z,6.33
2023-04-18T04:07:54.058Z,6.38
2023-04-18T04:12:55.062Z,6.39
2023-04-18T04:17:54.012Z,6.36
2023-04-18T04:22:53.983Z,6.32
2023-04-18T04:27:53.919Z,6.36
2023-04-18T04:32:53.917Z,6.33
2023-04-18T04:37:53.853Z,6.28
2023-04-18T04:42:53.824Z,6.19
2023-04-18T04:47:53.838Z,6.01
2023-04-18T04:52:53.810Z,5.88
2023-04-18T04:57:53.759Z,5.83
2023-04-18T05:02:53.878Z,5.92
2023-04-18T05:07:53.739Z,5.93
2023-04-18T05:12:53.720Z,5.98
2023-04-18T05:17:53.787Z,6.10
2023-04-18T05:22:53.662Z,6.19
2023-04-18T05:27:53.640Z,6.33
2023-04-18T05:32:53.632Z,6.39
2023-04-18T05:37:53.602Z,6.54
2023-04-18T05:42:53.576Z,6.58
2023-04-18T05:47:53.574Z,6.75
2023-04-18T05:52:53.520Z,6.64
2023-04-18T05:57:53.500Z,6.82
2023-04-18T06:02:53.598Z,6.99
2023-04-18T06:07:53.439Z,7.08
2023-04-18T06:12:54.670Z,7.16
2023-04-18T06:17:53.557Z,6.99
2023-04-18T06:22:53.339Z,7.01
2023-04-18T06:27:53.330Z,7.01
2023-04-18T06:32:53.304Z,7.08
2023-04-18T06:37:53.241Z,7.34
2023-04-18T06:42:53.209Z,7.60
2023-04-18T06:47:53.316Z,7.70
2023-04-18T06:52:53.122Z,7.54
2023-04-18T06:57:53.128Z,7.60
2023-04-18T07:02:53.208Z,7.63
2023-04-18T07:07:53.039Z,8.13
2023-04-18T07:12:54.611Z,8.28
2023-04-18T07:17:54.732Z,8.45
2023-04-18T07:22:52.982Z,8.75
2023-04-18T07:27:57.279Z,9.06
2023-04-18T07:32:53.016Z,10.98
2023-04-18T07:37:54.595Z,12.81
2023-04-18T07:42:52.862Z,10.91
2023-04-18T07:47:52.869Z,9.68
2023-04-18T07:52:54.035Z,9.31
2023-04-18T07:57:52.813Z,10.06
2023-04-18T08:02:54.801Z,9.96
2023-04-18T08:07:55.446Z,10.18
2023-04-18T08:12:52.729Z,10.42
2023-04-18T08:17:55.433Z,11.33
2023-04-18T08:27:52.677Z,12.88
2023-04-18T08:32:52.740Z,14.09
2023-04-18T08:37:52.608Z,15.44
2023-04-18T08:42:52.573Z,12.69
2023-04-18T08:47:52.589Z,11.63
2023-04-18T08:52:52.515Z,11.21
2023-04-18T08:57:52.499Z,10.86
2023-04-18T09:02:52.509Z,10.62
2023-04-18T09:07:52.395Z,10.63
2023-04-18T09:12:53.110Z,10.81
2023-04-18T09:17:52.375Z,11.44
2023-04-18T09:22:54.964Z,11.78
2023-04-18T09:27:54.932Z,11.72
2023-04-18T09:32:52.279Z,11.31
2023-04-18T09:37:54.902Z,11.67
2023-04-18T09:42:54.904Z,11.48
2023-04-18T09:47:55.363Z,11.24
2023-04-18T09:52:54.810Z,10.88
2023-04-18T09:57:52.105Z,10.83
2023-04-18T10:02:55.201Z,10.99
2023-04-18T10:07:52.158Z,11.26
2023-04-18T10:12:51.982Z,11.45
2023-04-18T10:22:52.054Z,11.39
2023-04-18T10:27:54.956Z,11.60
2023-04-18T10:32:51.845Z,11.30
2023-04-18T10:37:52.089Z,11.30
2023-04-18T10:42:54.625Z,11.35
2023-04-18T10:47:51.702Z,11.70
2023-04-18T10:52:51.728Z,12.11
2023-04-18T10:57:51.679Z,12.23
2023-04-18T11:02:51.786Z,11.93
2023-04-18T11:07:51.582Z,11.90
2023-04-18T11:12:51.503Z,11.94
2023-04-18T11:17:51.754Z,11.93
2023-04-18T11:22:51.713Z,12.00
2023-04-18T11:27:51.470Z,12.19
2023-04-18T11:32:51.533Z,12.33
2023-04-18T11:37:53.112Z,12.84
2023-04-18T11:42:51.359Z,12.62
2023-04-18T11:47:51.673Z,12.58
2023-04-18T11:52:52.111Z,13.25
2023-04-18T11:57:51.903Z,13.44
2023-04-18T12:02:51.359Z,13.03
2023-04-18T12:07:51.983Z,13.01
2023-04-18T12:12:53.840Z,13.21
2023-04-18T12:17:51.262Z,14.01
2023-04-18T12:22:51.111Z,14.42
2023-04-18T12:27:51.324Z,14.74
2023-04-18T12:32:51.140Z,14.46
2023-04-18T12:37:50.997Z,14.26
2023-04-18T12:42:50.972Z,14.46
2023-04-18T12:47:51.008Z,14.08
2023-04-18T12:52:50.893Z,14.04
2023-04-18T12:57:52.294Z,13.87
2023-04-18T13:02:51.061Z,13.86
2023-04-18T13:07:50.925Z,13.80
2023-04-18T13:12:52.694Z,14.20
2023-04-18T13:17:52.711Z,14.11
2023-04-18T13:22:52.208Z,14.49
2023-04-18T13:27:50.695Z,14.75
2023-04-18T13:42:55.183Z,14.56
2023-04-18T13:43:00.466Z,13.47
2023-04-18T13:48:01.481Z,13.31
2023-04-18T13:53:02.563Z,13.53
2023-04-18T13:58:09.866Z,13.57
2023-04-18T14:03:04.990Z,13.55
2023-04-18T14:09:04.403Z,13.62
2023-04-18T14:13:02.254Z,13.28
2023-04-18T14:18:02.222Z,13.14
2023-04-18T14:23:00.236Z,13.07
2023-04-18T14:28:07.888Z,12.94
2023-04-18T14:33:02.914Z,12.99
2023-04-18T14:38:01.707Z,13.04
2023-04-18T14:43:04.387Z,13.09
2023-04-18T14:48:02.834Z,13.16
2023-04-18T14:53:04.374Z,13.10
2023-04-18T14:57:59.965Z,13.12
2023-04-18T15:03:00.051Z,13.17
2023-04-18T15:07:59.919Z,13.19
2023-04-18T15:12:59.891Z,13.19
2023-04-18T15:17:59.992Z,13.22
2023-04-18T15:22:59.826Z,13.24
2023-04-18T15:27:59.778Z,13.19
2023-04-18T15:32:59.787Z,13.16
2023-04-18T15:37:59.719Z,13.17
2023-04-18T15:42:59.766Z,13.12
2023-04-18T15:47:59.727Z,13.10
2023-04-18T15:52:59.654Z,13.06
2023-04-18T15:57:59.617Z,13.06
2023-04-18T16:02:59.641Z,12.98
2023-04-18T16:08:02.246Z,13.04
2023-04-18T16:12:59.522Z,13.13
2023-04-18T16:17:59.537Z,13.04
2023-04-18T16:22:59.421Z,12.92
2023-04-18T16:27:59.393Z,12.94
2023-04-18T16:32:59.401Z,12.87
2023-04-18T16:37:59.317Z,12.80
2023-04-18T16:42:59.280Z,12.77
2023-04-18T16:47:59.253Z,12.69
2023-04-18T16:52:59.192Z,12.70
2023-04-18T16:57:59.159Z,12.66
2023-04-18T17:02:59.184Z,12.66
2023-04-18T17:07:59.077Z,12.67
2023-04-18T17:12:59.068Z,12.63
2023-04-18T17:17:59.006Z,12.59
2023-04-18T17:22:58.960Z,12.55
2023-04-18T17:27:58.928Z,12.49
2023-04-18T17:32:58.901Z,12.46
2023-04-18T17:37:58.826Z,12.43
2023-04-18T17:42:58.795Z,12.40
2023-04-18T17:47:58.776Z,12.37
2023-04-18T17:52:58.688Z,12.36
2023-04-18T17:57:58.676Z,12.29
2023-04-18T18:02:58.687Z,12.22
2023-04-18T18:07:58.607Z,12.15
2023-04-18T18:13:01.238Z,12.07
2023-04-18T18:17:58.585Z,12.04
2023-04-18T18:22:58.552Z,11.97
2023-04-18T18:27:58.552Z,11.94
2023-04-18T18:32:58.554Z,11.84
2023-04-18T18:37:58.441Z,11.79
2023-04-18T18:42:58.414Z,11.74
2023-04-18T18:47:58.601Z,11.66
2023-04-18T18:52:58.385Z,11.56
2023-04-18T18:57:58.371Z,11.44
2023-04-18T19:02:58.528Z,11.33
2023-04-18T19:07:58.351Z,11.24
2023-04-18T19:12:58.309Z,11.13
2023-04-18T19:17:58.304Z,11.06
2023-04-18T19:22:58.240Z,11.01
2023-04-18T19:27:58.198Z,10.95
2023-04-18T19:32:58.201Z,10.88
2023-04-18T19:37:58.128Z,10.81
2023-04-18T19:42:58.113Z,10.69
2023-04-18T19:47:58.102Z,10.57
2023-04-18T19:52:58.054Z,10.51
2023-04-18T19:57:58.004Z,10.43
2023-04-18T20:02:58.127Z,10.34
2023-04-18T20:07:58.083Z,10.25
2023-04-18T20:12:57.914Z,10.14
2023-04-18T20:17:57.942Z,10.07
2023-04-18T20:22:57.869Z,10.01
2023-04-18T20:28:00.508Z,9.92
2023-04-18T20:32:57.827Z,9.86
2023-04-18T20:37:57.764Z,9.74
2023-04-18T20:43:00.477Z,9.71
2023-04-18T20:47:57.739Z,9.63
2023-04-18T20:52:57.647Z,9.58
2023-04-18T20:57:57.645Z,9.53
2023-04-18T21:02:57.748Z,9.49
2023-04-18T21:07:57.580Z,9.42
2023-04-18T21:12:57.568Z,9.35
2023-04-18T21:17:57.556Z,9.24
2023-04-18T21:22:57.507Z,9.15
2023-04-18T21:27:57.467Z,9.06
2023-04-18T21:32:57.483Z,9.00
2023-04-18T21:37:57.428Z,8.91
2023-04-18T21:42:57.386Z,8.89
2023-04-18T21:47:57.380Z,8.80
2023-04-18T21:52:57.316Z,8.68
2023-04-18T21:57:57.305Z,8.46
2023-04-18T22:02:57.474Z,8.29
2023-04-18T22:07:58.492Z,8.13
2023-04-18T22:12:57.227Z,8.09
2023-04-18T22:17:57.245Z,7.95
2023-04-18T22:22:57.142Z,7.88
2023-04-18T22:27:57.134Z,7.79
2023-04-18T22:32:57.114Z,7.76
2023-04-18T22:37:57.059Z,7.73
2023-04-18T22:42:57.041Z,7.71
2023-04-18T22:47:57.078Z,7.62
2023-04-18T22:52:56.961Z,7.58
2023-04-18T22:57:56.986Z,7.47
2023-04-18T23:02:57.027Z,7.27
2023-04-18T23:07:59.626Z,7.09
2023-04-18T23:12:56.852Z,7.01
2023-04-18T23:17:56.867Z,6.90
2023-04-18T23:22:56.797Z,6.79
2023-04-18T23:27:56.776Z,6.65
2023-04-18T23:32:56.809Z,6.58
2023-04-18T23:37:56.696Z,6.42
2023-04-18T23:42:56.678Z,6.38
2023-04-18T23:47:56.844Z,6.28
2023-04-18T23:52:56.646Z,6.20
2023-04-18T23:57:56.626Z,6.13
